Time;durP1;ratioP1;P1;durP2;ratioP2;P2;SDS_P1;SDS_P2;PMS_P1;PMS_P2;Temp;Humidity;BMP_temperature;BMP_pressure;BME280_temperature;BME280_humidity;BME280_pressure;Samples;Min_cycle;Max_cycle;Signal;HPM_P1;HPM_P2
2024/02/09 00:00:36;;;;;;;28.03;10.97;;;9.10;99.90;;;;;;5031234;28;20028;-82
2024/02/09 00:03:01;;;;;;;27.83;11.70;;;9.10;99.90;;;;;;5031166;28;20414;-82
2024/02/09 00:05:27;;;;;;;30.27;12.27;;;9.10;99.90;;;;;;5045645;28;20484;-82
2024/02/09 00:07:53;;;;;;;24.13;12.38;;;9.10;99.90;;;;;;5050330;28;20613;-82
2024/02/09 00:10:19;;;;;;;25.83;12.55;;;9.10;99.90;;;;;;5049405;28;20100;-81
2024/02/09 00:12:47;;;;;;;26.90;13.02;;;9.20;99.90;;;;;;5049921;28;20033;-81
2024/02/09 00:15:20;;;;;;;35.35;13.07;;;9.10;99.90;;;;;;5050390;28;20021;-82
2024/02/09 00:17:47;;;;;;;30.15;13.05;;;9.10;99.90;;;;;;5050132;28;20044;-82
2024/02/09 00:20:12;;;;;;;33.63;12.27;;;9.10;99.90;;;;;;5051167;28;20112;-82
2024/02/09 00:22:39;;;;;;;26.60;13.23;;;9.10;99.90;;;;;;5049422;28;20108;-82
2024/02/09 00:25:08;;;;;;;32.53;12.77;;;9.10;99.90;;;;;;5040313;28;20033;-82
2024/02/09 00:27:34;;;;;;;34.33;13.55;;;9.10;99.90;;;;;;5034769;28;20436;-82
2024/02/09 00:30:00;;;;;;;37.90;12.98;;;9.10;99.90;;;;;;5029648;28;20029;-82
2024/02/09 00:32:25;;;;;;;22.77;11.77;;;9.10;99.90;;;;;;5030104;28;20037;-82
2024/02/09 00:34:51;;;;;;;26.05;12.55;;;9.10;99.90;;;;;;5030400;28;20072;-82
2024/02/09 00:37:16;;;;;;;35.55;12.02;;;9.10;99.90;;;;;;5030762;28;20033;-81
2024/02/09 00:39:42;;;;;;;36.63;11.63;;;9.10;99.90;;;;;;5030799;28;20051;-82
2024/02/09 00:42:12;;;;;;;28.92;11.88;;;9.20;99.90;;;;;;5031104;28;20077;-82
2024/02/09 00:44:38;;;;;;;28.15;12.82;;;9.20;99.90;;;;;;5030365;28;20025;-82
2024/02/09 00:47:04;;;;;;;31.40;11.50;;;9.20;99.90;;;;;;5031467;28;20025;-83
2024/02/09 00:49:30;;;;;;;28.60;11.88;;;9.20;99.90;;;;;;5031311;28;20066;-83
2024/02/09 00:51:56;;;;;;;21.55;11.30;;;9.20;99.90;;;;;;5030253;28;20057;-83
2024/02/09 00:54:22;;;;;;;32.63;11.73;;;9.20;99.90;;;;;;5044331;28;20119;-83
2024/02/09 00:56:48;;;;;;;20.48;11.68;;;9.20;99.90;;;;;;5049910;28;20113;-83
2024/02/09 00:59:17;;;;;;;30.23;11.20;;;9.20;99.90;;;;;;5052809;28;20021;-83
2024/02/09 01:01:43;;;;;;;20.90;11.50;;;9.30;99.90;;;;;;5054122;28;20472;-83
2024/02/09 01:04:11;;;;;;;23.60;11.13;;;9.20;99.90;;;;;;5054695;28;20070;-83
2024/02/09 01:06:37;;;;;;;24.60;11.05;;;9.30;99.90;;;;;;5053356;28;20033;-83
2024/02/09 01:09:06;;;;;;;30.08;11.48;;;9.30;99.90;;;;;;5054423;28;20032;-82
2024/02/09 01:11:32;;;;;;;28.00;10.50;;;9.30;99.90;;;;;;5054506;28;20036;-83
2024/02/09 02:46:51;;;;;;;19.85;8.60;;;9.60;99.90;;;;;;5052205;28;20484;-83
2024/02/09 03:05:42;;;;;;;24.42;8.40;;;9.50;99.90;;;;;;5050178;28;20579;-83
2024/02/09 03:08:08;;;;;;;26.88;9.35;;;9.50;99.90;;;;;;5051675;28;20104;-83
2024/02/09 03:10:35;;;;;;;17.20;9.13;;;9.50;99.90;;;;;;5050668;28;20113;-83
2024/02/09 03:13:01;;;;;;;17.55;8.60;;;9.50;99.90;;;;;;5050546;28;20094;-83
2024/02/09 03:15:26;;;;;;;14.43;7.82;;;9.50;99.90;;;;;;5049877;28;20021;-83
2024/02/09 03:17:53;;;;;;;25.15;9.15;;;9.50;99.90;;;;;;5047454;28;20037;-82
2024/02/09 03:20:20;;;;;;;24.65;8.25;;;10.10;99.90;;;;;;5046246;28;20031;-83
2024/02/09 03:22:46;;;;;;;14.70;7.30;;;9.50;99.90;;;;;;5031756;28;20385;-82
2024/02/09 03:25:12;;;;;;;19.35;7.95;;;9.60;99.90;;;;;;5037268;28;20108;-82
2024/02/09 03:27:40;;;;;;;14.85;7.65;;;9.60;99.90;;;;;;5041127;28;20025;-83
2024/02/09 03:30:07;;;;;;;17.88;7.45;;;9.60;99.90;;;;;;5031737;28;20037;-83
2024/02/09 03:32:34;;;;;;;19.83;8.40;;;9.60;99.90;;;;;;5029264;28;20429;-83
2024/02/09 03:35:03;;;;;;;26.38;8.27;;;10.10;99.90;;;;;;5031723;28;20041;-83
2024/02/09 03:37:33;;;;;;;17.75;7.40;;;9.60;99.90;;;;;;5031567;28;20091;-84
2024/02/09 03:40:08;;;;;;;16.65;7.43;;;9.50;99.90;;;;;;5036166;28;20422;-83
2024/02/09 03:42:33;;;;;;;15.18;7.78;;;9.60;99.90;;;;;;5050623;28;20025;-83
2024/02/09 03:44:59;;;;;;;12.95;7.05;;;9.60;99.90;;;;;;5051770;28;20025;-83
2024/02/09 03:47:28;;;;;;;18.33;7.45;;;9.60;99.90;;;;;;5049043;28;20028;-83
2024/02/09 03:49:54;;;;;;;13.45;6.57;;;9.60;99.90;;;;;;5051544;28;20060;-83
2024/02/09 03:52:21;;;;;;;16.25;6.43;;;9.60;99.90;;;;;;5051464;28;20037;-83
2024/02/09 03:54:51;;;;;;;15.57;6.32;;;9.60;99.90;;;;;;5050210;28;20021;-83
2024/02/09 03:57:21;;;;;;;12.88;6.05;;;9.60;99.90;;;;;;5051212;28;20370;-84
2024/02/09 03:59:46;;;;;;;13.63;6.47;;;9.60;99.90;;;;;;5051578;28;20036;-84
2024/02/09 04:02:12;;;;;;;14.93;6.25;;;9.60;99.90;;;;;;5050985;28;20028;-83
2024/02/09 04:04:38;;;;;;;10.25;6.43;;;9.60;99.90;;;;;;5047428;28;20425;-82
2024/02/09 04:07:08;;;;;;;13.93;6.43;;;9.60;99.90;;;;;;5033803;28;20132;-82
2024/02/09 04:09:34;;;;;;;15.82;6.18;;;9.60;99.90;;;;;;5042515;28;20507;-82
2024/02/09 04:12:00;;;;;;;13.27;6.07;;;9.60;99.90;;;;;;5050072;28;20106;-82
2024/02/09 04:14:27;;;;;;;18.45;5.60;;;9.60;99.90;;;;;;5050816;28;20488;-83
2024/02/09 04:16:53;;;;;;;18.15;5.75;;;9.60;99.90;;;;;;5049662;28;20507;-83
2024/02/09 04:19:23;;;;;;;10.15;4.55;;;9.60;99.90;;;;;;5051302;28;20512;-83
2024/02/09 04:21:49;;;;;;;9.53;4.23;;;9.60;99.90;;;;;;5050460;28;20021;-82
2024/02/09 04:24:23;;;;;;;6.55;4.90;;;9.60;99.90;;;;;;5051330;28;20111;-83
2024/02/09 04:26:49;;;;;;;5.20;4.25;;;9.70;99.90;;;;;;5047353;28;20591;-83
2024/02/09 04:29:15;;;;;;;8.30;4.63;;;9.60;99.90;;;;;;5049759;28;20074;-82
2024/02/09 04:31:50;;;;;;;6.20;4.45;;;9.60;99.90;;;;;;5050962;28;20036;-83
2024/02/09 04:34:17;;;;;;;8.65;4.13;;;9.70;99.90;;;;;;5054061;28;20029;-82
2024/02/09 04:36:48;;;;;;;9.05;4.03;;;9.70;99.90;;;;;;5053565;28;20036;-81
2024/02/09 04:39:15;;;;;;;8.45;4.35;;;9.70;99.90;;;;;;5054475;28;20031;-82
2024/02/09 04:41:43;;;;;;;9.80;4.55;;;9.70;99.90;;;;;;5042527;28;20034;-82
2024/02/09 04:44:08;;;;;;;11.50;5.07;;;9.70;99.90;;;;;;5034403;28;20032;-82
2024/02/09 04:46:35;;;;;;;10.65;4.80;;;9.70;99.90;;;;;;5041957;28;20037;-82
2024/02/09 04:49:01;;;;;;;7.88;5.05;;;9.70;99.90;;;;;;5054945;28;20071;-83
2024/02/09 04:51:33;;;;;;;7.97;5.18;;;9.70;99.90;;;;;;5052641;28;20413;-82
2024/02/09 04:53:59;;;;;;;5.57;4.85;;;9.70;99.90;;;;;;5054245;28;20025;-83
2024/02/09 04:56:26;;;;;;;11.02;5.22;;;9.70;99.90;;;;;;5053439;28;20465;-83
2024/02/09 04:58:52;;;;;;;9.55;4.85;;;9.70;99.90;;;;;;5054207;28;20033;-84
2024/02/09 05:01:29;;;;;;;11.63;5.35;;;9.70;99.90;;;;;;5054120;28;20469;-84
2024/02/09 05:03:58;;;;;;;9.02;4.60;;;9.70;99.90;;;;;;5053822;28;20036;-82
2024/02/09 05:06:28;;;;;;;8.05;4.88;;;9.70;99.90;;;;;;5063985;28;20024;-83
2024/02/09 05:08:58;;;;;;;8.25;4.72;;;9.70;99.90;;;;;;5073911;28;20048;-83
2024/02/09 05:11:30;;;;;;;10.10;4.88;;;9.70;99.90;;;;;;5072989;28;20032;-84
2024/02/09 05:13:56;;;;;;;6.88;4.50;;;9.70;99.90;;;;;;5074224;28;20024;-83
2024/02/09 05:16:23;;;;;;;5.68;4.88;;;9.80;99.90;;;;;;5059929;28;20061;-84
2024/02/09 05:18:49;;;;;;;10.40;4.80;;;9.70;99.90;;;;;;5053222;28;20493;-83
2024/02/09 05:21:14;;;;;;;7.72;4.88;;;9.70;99.90;;;;;;5053725;28;20025;-83
2024/02/09 05:23:42;;;;;;;6.93;4.65;;;9.70;99.90;;;;;;5053176;28;20036;-84
2024/02/09 05:26:09;;;;;;;12.50;5.15;;;9.90;99.90;;;;;;5051210;28;20064;-83
2024/02/09 05:28:39;;;;;;;13.20;4.78;;;9.70;99.90;;;;;;5053734;28;20025;-83
2024/02/09 05:31:22;;;;;;;7.17;4.77;;;9.70;99.90;;;;;;5053824;28;20064;-83
2024/02/09 05:33:49;;;;;;;8.90;4.40;;;9.70;99.90;;;;;;5041821;28;20051;-83
2024/02/09 05:36:23;;;;;;;9.20;5.32;;;9.70;99.90;;;;;;5038709;28;20108;-83
2024/02/09 05:38:53;;;;;;;13.98;4.57;;;9.70;99.90;;;;;;5053927;28;20025;-83
2024/02/09 05:41:22;;;;;;;9.10;4.32;;;9.70;99.90;;;;;;5036414;28;20057;-83
2024/02/09 05:43:52;;;;;;;12.23;5.07;;;9.70;99.90;;;;;;5034836;28;20041;-83
2024/02/09 05:46:18;;;;;;;17.63;4.72;;;9.70;99.90;;;;;;5052664;28;20044;-83
2024/02/09 05:48:49;;;;;;;8.10;4.20;;;9.70;99.90;;;;;;5053001;28;20070;-83
2024/02/09 05:51:17;;;;;;;11.05;4.53;;;9.70;99.90;;;;;;5053918;28;20037;-83
2024/02/09 05:53:43;;;;;;;10.45;4.40;;;9.80;99.90;;;;;;5053141;28;20037;-82
2024/02/09 05:56:16;;;;;;;11.70;4.28;;;9.80;99.90;;;;;;5051131;28;20083;-83
2024/02/09 05:58:42;;;;;;;12.60;4.45;;;9.80;99.90;;;;;;5051876;28;20090;-83
2024/02/09 06:01:08;;;;;;;9.75;4.40;;;9.80;99.90;;;;;;5050940;28;20037;-83
2024/02/09 06:03:34;;;;;;;11.15;4.50;;;9.80;99.90;;;;;;5051970;28;20026;-82
2024/02/09 06:06:02;;;;;;;8.25;4.18;;;9.80;99.90;;;;;;5052809;28;20032;-83
2024/02/09 06:08:27;;;;;;;10.27;4.80;;;9.80;99.90;;;;;;5047131;28;20024;-84
2024/02/09 06:10:53;;;;;;;12.02;3.97;;;9.80;99.90;;;;;;5049124;28;20360;-85
2024/02/09 06:13:18;;;;;;;5.70;4.07;;;9.80;99.90;;;;;;5051384;28;20139;-85
2024/02/09 06:15:44;;;;;;;7.80;3.97;;;9.80;99.90;;;;;;5050151;28;20419;-84
2024/02/09 06:18:09;;;;;;;12.68;5.00;;;9.80;99.90;;;;;;5049719;28;20039;-85
2024/02/09 06:20:35;;;;;;;10.57;4.88;;;9.80;99.90;;;;;;5044399;28;20021;-84
2024/02/09 06:23:04;;;;;;;7.63;3.97;;;9.80;99.90;;;;;;5049761;28;20025;-84
2024/02/09 06:25:30;;;;;;;11.05;3.72;;;9.80;99.90;;;;;;5048184;28;20689;-84
2024/02/09 06:27:56;;;;;;;10.40;4.25;;;9.80;99.90;;;;;;5053626;23;20064;-84
2024/02/09 06:30:22;;;;;;;9.73;4.60;;;9.80;99.90;;;;;;5050361;28;20029;-84
2024/02/09 06:32:48;;;;;;;13.65;4.47;;;9.80;99.90;;;;;;5049542;28;20431;-84
2024/02/09 06:35:14;;;;;;;10.73;4.75;;;9.80;99.90;;;;;;5047540;28;20210;-84
2024/02/09 06:37:39;;;;;;;10.55;4.68;;;9.80;99.90;;;;;;5049209;28;20028;-84
2024/02/09 06:40:08;;;;;;;10.35;4.00;;;9.80;99.90;;;;;;5046864;28;20461;-84
2024/02/09 06:42:34;;;;;;;14.35;4.38;;;9.80;99.90;;;;;;5040851;28;20033;-84
2024/02/09 06:44:59;;;;;;;8.93;4.00;;;9.80;99.90;;;;;;5050013;28;20087;-84
2024/02/09 06:47:25;;;;;;;10.60;4.30;;;9.80;99.90;;;;;;5050267;28;20028;-84
2024/02/09 06:49:51;;;;;;;8.00;3.72;;;9.90;99.90;;;;;;5050002;28;20021;-85
2024/02/09 06:52:18;;;;;;;10.40;3.60;;;9.90;99.90;;;;;;5049806;28;20037;-84
2024/02/09 06:54:45;;;;;;;8.95;3.75;;;9.90;99.90;;;;;;5049816;28;20108;-84
2024/02/09 06:57:11;;;;;;;10.77;4.00;;;9.90;99.90;;;;;;5045594;28;20033;-84
2024/02/09 06:59:37;;;;;;;14.10;3.85;;;9.90;99.90;;;;;;5050292;28;20025;-84
2024/02/09 07:02:05;;;;;;;10.35;3.60;;;9.90;99.90;;;;;;5050319;28;20038;-84
2024/02/09 07:04:30;;;;;;;8.60;4.22;;;9.90;99.90;;;;;;5051948;28;20052;-83
2024/02/09 07:06:56;;;;;;;13.57;4.28;;;10.00;99.90;;;;;;5038800;28;20036;-83
2024/02/09 07:09:23;;;;;;;10.90;3.63;;;10.00;99.90;;;;;;5045766;28;20459;-83
2024/02/09 07:11:49;;;;;;;9.82;4.70;;;9.90;99.90;;;;;;5048616;28;20118;-83
2024/02/09 07:14:16;;;;;;;13.68;3.67;;;9.90;99.90;;;;;;5044749;28;20136;-83
2024/02/09 07:16:42;;;;;;;10.05;4.38;;;10.00;99.90;;;;;;5044913;28;20417;-82
2024/02/09 07:19:12;;;;;;;10.40;3.85;;;10.00;99.90;;;;;;5049004;28;20548;-83
2024/02/09 07:21:38;;;;;;;;;;;10.00;99.90;;;;;;5035771;28;20088;-83
2024/02/09 07:24:04;;;;;;;7.78;4.13;;;10.00;99.90;;;;;;5033936;28;20328;-82
2024/02/09 07:26:30;;;;;;;11.50;4.45;;;10.00;99.90;;;;;;5042307;28;21961;-83
2024/02/09 07:28:57;;;;;;;15.55;4.45;;;10.00;99.90;;;;;;5043633;28;20017;-82
2024/02/09 07:31:22;;;;;;;9.55;3.85;;;10.00;99.90;;;;;;5042087;28;20037;-82
2024/02/09 07:33:48;;;;;;;9.88;4.32;;;10.00;99.90;;;;;;5048750;28;20033;-82
2024/02/09 07:36:14;;;;;;;15.13;4.30;;;10.00;99.90;;;;;;5040452;28;20025;-83
2024/02/09 07:38:40;;;;;;;7.95;3.70;;;10.00;99.90;;;;;;5048837;28;20029;-83
2024/02/09 07:41:10;;;;;;;10.65;4.40;;;10.00;99.90;;;;;;5049090;28;20424;-83
2024/02/09 07:43:35;;;;;;;8.77;3.72;;;10.00;99.90;;;;;;5034649;28;20032;-83
2024/02/09 07:46:01;;;;;;;11.30;3.60;;;10.10;99.90;;;;;;5049408;28;20037;-83
2024/02/09 07:48:28;;;;;;;8.27;4.10;;;10.00;99.90;;;;;;5037766;28;20032;-82
2024/02/09 07:50:55;;;;;;;7.53;3.65;;;10.00;99.90;;;;;;5041661;28;20094;-80
2024/02/09 07:53:20;;;;;;;8.52;4.07;;;10.00;99.90;;;;;;5045314;28;20504;-82
2024/02/09 07:55:46;;;;;;;16.83;4.60;;;10.20;99.90;;;;;;5045932;28;20021;-83
2024/02/09 07:58:11;;;;;;;11.77;3.83;;;10.00;99.90;;;;;;5034567;28;20619;-83
2024/02/09 08:00:37;;;;;;;11.90;3.53;;;10.00;99.90;;;;;;5042172;28;20021;-83
2024/02/09 08:03:02;;;;;;;8.45;4.40;;;10.10;99.90;;;;;;5043987;28;20033;-82
2024/02/09 08:05:28;;;;;;;12.02;4.03;;;10.10;99.90;;;;;;5045242;28;20037;-81
2024/02/09 08:07:54;;;;;;;7.90;4.55;;;10.10;99.90;;;;;;5045565;28;20029;-81
2024/02/09 08:10:19;;;;;;;5.38;3.80;;;10.10;99.90;;;;;;5041651;28;20111;-83
2024/02/09 08:12:45;;;;;;;11.60;4.55;;;10.20;99.90;;;;;;5053018;28;20059;-83
2024/02/09 08:15:11;;;;;;;8.90;4.57;;;10.20;99.90;;;;;;5052848;28;20122;-83
2024/02/09 08:17:48;;;;;;;13.00;4.32;;;10.20;99.90;;;;;;5046701;28;20413;-82
2024/02/09 08:20:14;;;;;;;7.72;3.92;;;10.20;99.90;;;;;;5053533;28;20029;-83
2024/02/09 08:22:44;;;;;;;14.82;4.07;;;10.20;99.90;;;;;;5054062;28;20056;-83
2024/02/09 08:25:13;;;;;;;8.07;3.58;;;10.20;99.90;;;;;;5055125;28;20029;-83
2024/02/09 08:27:38;;;;;;;7.57;4.28;;;10.20;99.90;;;;;;5051948;28;20551;-83
2024/02/09 08:30:08;;;;;;;8.98;4.20;;;10.20;99.90;;;;;;5053053;28;20107;-83
2024/02/09 08:32:34;;;;;;;8.50;3.78;;;10.20;99.90;;;;;;5050369;28;20361;-83
2024/02/09 08:34:59;;;;;;;17.05;3.92;;;10.30;99.90;;;;;;5053562;28;20124;-83
2024/02/09 08:37:26;;;;;;;9.48;3.60;;;10.30;99.90;;;;;;5054436;28;20075;-81
2024/02/09 08:39:52;;;;;;;8.15;4.47;;;10.30;99.90;;;;;;5053527;28;20393;-84
2024/02/09 08:42:18;;;;;;;9.13;3.80;;;10.40;99.90;;;;;;5052772;28;20031;-84
2024/02/09 08:44:44;;;;;;;7.00;3.20;;;10.30;99.90;;;;;;5054101;28;20031;-82
2024/02/09 08:47:10;;;;;;;11.43;4.10;;;10.40;99.90;;;;;;5052814;28;20120;-83
2024/02/09 08:49:36;;;;;;;9.52;3.83;;;10.40;99.90;;;;;;5053480;28;20477;-82
2024/02/09 08:52:03;;;;;;;8.88;3.85;;;10.40;99.90;;;;;;5054125;28;20370;-85
2024/02/09 08:54:29;;;;;;;8.00;3.72;;;10.40;99.90;;;;;;5053865;28;20051;-86
2024/02/09 08:57:00;;;;;;;7.10;3.47;;;10.40;99.90;;;;;;5040008;28;20030;-85
2024/02/09 08:59:26;;;;;;;7.85;3.70;;;10.40;99.90;;;;;;5034293;28;20026;-83
2024/02/09 09:01:52;;;;;;;10.10;4.80;;;10.40;99.90;;;;;;5033352;28;20519;-84
2024/02/09 09:04:18;;;;;;;5.28;3.70;;;10.40;99.90;;;;;;5033356;28;20032;-84
2024/02/09 09:06:45;;;;;;;9.55;3.75;;;10.50;99.90;;;;;;5034735;28;20033;-84
2024/02/09 09:09:12;;;;;;;8.50;3.63;;;10.50;99.90;;;;;;5034579;28;20048;-83
2024/02/09 09:11:37;;;;;;;10.38;4.20;;;10.50;99.90;;;;;;5035205;28;20045;-83
2024/02/09 09:14:05;;;;;;;7.70;3.75;;;10.50;99.90;;;;;;5052430;28;20075;-84
2024/02/09 09:16:30;;;;;;;11.07;3.55;;;10.50;99.90;;;;;;5053768;28;20032;-85
2024/02/09 09:18:56;;;;;;;8.52;3.65;;;10.50;99.90;;;;;;5052174;28;20029;-85
2024/02/09 09:21:22;;;;;;;8.52;3.83;;;10.50;99.90;;;;;;5054274;28;20025;-80
2024/02/09 09:23:47;;;;;;;6.30;3.80;;;10.50;99.90;;;;;;5053116;28;20059;-81
2024/02/09 09:26:13;;;;;;;7.72;3.63;;;10.50;99.90;;;;;;5052177;28;20021;-83
2024/02/09 09:28:38;;;;;;;8.40;4.40;;;10.50;99.90;;;;;;5053919;28;20033;-80
2024/02/09 09:31:04;;;;;;;5.88;4.03;;;10.50;99.90;;;;;;5053305;28;20026;-79
2024/02/09 09:33:34;;;;;;;12.23;4.65;;;10.50;99.90;;;;;;5052085;28;20061;-88
2024/02/09 09:36:02;;;;;;;8.70;4.00;;;10.50;99.90;;;;;;5053354;28;20074;-85
2024/02/09 09:38:28;;;;;;;7.90;3.67;;;10.50;99.90;;;;;;5050441;28;20044;-86
2024/02/09 09:40:54;;;;;;;11.30;5.15;;;10.60;99.90;;;;;;5038676;28;20113;-87
2024/02/09 09:43:22;;;;;;;10.60;4.20;;;10.60;99.90;;;;;;5033576;28;20037;-86
2024/02/09 09:45:57;;;;;;;15.70;4.75;;;10.50;99.90;;;;;;5031812;28;20029;-83
2024/02/09 09:48:24;;;;;;;10.82;4.30;;;10.60;99.90;;;;;;5034126;28;20090;-80
2024/02/09 09:50:50;;;;;;;9.77;4.18;;;10.60;99.90;;;;;;5051019;28;20029;-81
2024/02/09 09:53:21;;;;;;;8.93;4.07;;;10.70;99.90;;;;;;5052020;28;20484;-81
2024/02/09 09:55:46;;;;;;;10.02;3.85;;;10.70;99.90;;;;;;5048025;28;20072;-82
2024/02/09 09:58:13;;;;;;;11.82;3.97;;;10.70;99.90;;;;;;5033340;28;20068;-81
2024/02/09 10:00:40;;;;;;;13.30;3.97;;;10.80;99.90;;;;;;5031500;28;20029;-81
2024/02/09 10:03:07;;;;;;;10.85;3.90;;;10.90;99.90;;;;;;5047242;28;20029;-83
2024/02/09 10:05:35;;;;;;;13.40;4.15;;;10.90;99.90;;;;;;5053053;28;20036;-84
2024/02/09 10:08:02;;;;;;;8.43;3.33;;;10.90;99.90;;;;;;5052719;28;20033;-83
2024/02/09 10:10:28;;;;;;;6.93;3.55;;;11.00;99.90;;;;;;5053023;28;20384;-82
2024/02/09 10:13:14;;;;;;;5.35;2.95;;;11.00;99.90;;;;;;5052872;28;20056;-83
2024/02/09 10:15:45;;;;;;;3.03;2.63;;;11.10;99.90;;;;;;5049587;28;20021;-82
2024/02/09 10:18:10;;;;;;;;;;;11.10;99.90;;;;;;5052382;28;20036;-81
2024/02/09 10:20:49;;;;;;;7.60;2.35;;;11.20;99.90;;;;;;5051699;28;20323;-81
2024/02/09 10:23:19;;;;;;;4.13;2.15;;;11.20;99.90;;;;;;5049907;28;20082;-81
2024/02/09 10:25:45;;;;;;;;;;;11.30;99.90;;;;;;5051889;28;20064;-78
2024/02/09 10:28:12;;;;;;;3.40;1.73;;;11.30;99.90;;;;;;5050572;28;19939;-80
2024/02/09 10:30:38;;;;;;;6.53;1.92;;;11.40;99.90;;;;;;5052650;28;20105;-79
2024/02/09 10:33:06;;;;;;;5.57;2.15;;;11.40;99.90;;;;;;5051452;28;20040;-82
2024/02/09 10:35:35;;;;;;;5.30;2.75;;;11.40;99.90;;;;;;5051952;28;20098;-83
2024/02/09 10:38:03;;;;;;;4.85;2.58;;;11.40;99.90;;;;;;5052957;28;20483;-81
2024/02/09 10:40:29;;;;;;;5.35;2.33;;;11.40;99.90;;;;;;5048126;28;20424;-84
2024/02/09 10:42:58;;;;;;;5.35;2.70;;;11.40;99.90;;;;;;5042221;28;20029;-84
2024/02/09 10:45:26;;;;;;;4.65;2.72;;;11.40;99.90;;;;;;5039441;28;20052;-83
2024/02/09 10:47:56;;;;;;;5.07;2.42;;;11.40;99.90;;;;;;5043201;28;20025;-82
2024/02/09 10:50:22;;;;;;;10.18;3.00;;;11.60;99.90;;;;;;5037591;28;20031;-83
2024/02/09 10:52:51;;;;;;;5.95;3.17;;;11.40;99.90;;;;;;5045884;28;20094;-87
2024/02/09 10:55:33;;;;;;;4.10;3.20;;;11.40;99.90;;;;;;5039877;28;20021;-84
2024/02/09 10:57:59;;;;;;;11.48;3.63;;;11.40;99.90;;;;;;5050748;28;20049;-84
2024/02/09 11:00:25;;;;;;;8.50;3.50;;;11.30;99.90;;;;;;5047862;28;20056;-83
2024/02/09 11:02:51;;;;;;;5.13;3.67;;;11.30;99.90;;;;;;5048596;28;20488;-81
2024/02/09 11:05:16;;;;;;;8.98;3.35;;;11.30;99.90;;;;;;5044645;28;20017;-82
2024/02/09 11:07:45;;;;;;;5.68;3.38;;;11.30;99.90;;;;;;5051360;28;20039;-80
2024/02/09 11:10:15;;;;;;;4.65;3.00;;;11.30;99.90;;;;;;5050708;28;20075;-82
2024/02/09 11:12:40;;;;;;;12.13;3.33;;;11.30;99.90;;;;;;5050127;28;20041;-82
2024/02/09 11:15:15;;;;;;;5.13;3.00;;;11.30;99.90;;;;;;5042370;28;20094;-81
2024/02/09 11:17:49;;;;;;;10.48;3.35;;;11.30;99.90;;;;;;5040711;28;20358;-80
2024/02/09 11:20:16;;;;;;;4.95;2.95;;;11.30;99.90;;;;;;5045871;28;20048;-82
2024/02/09 11:22:47;;;;;;;4.43;2.65;;;11.20;99.90;;;;;;5046910;28;20032;-80
2024/02/09 11:25:19;;;;;;;9.32;3.20;;;11.30;99.90;;;;;;5038715;28;20025;-82
2024/02/09 11:27:51;;;;;;;13.35;3.17;;;11.20;99.90;;;;;;5053105;28;20160;-82
2024/02/09 11:30:23;;;;;;;7.20;3.03;;;11.20;99.90;;;;;;5049679;28;20156;-81
2024/02/09 11:32:48;;;;;;;4.65;3.08;;;11.20;99.90;;;;;;5052954;28;20545;-80
2024/02/09 11:35:18;;;;;;;12.10;3.50;;;11.20;99.90;;;;;;5051311;28;20036;-81
2024/02/09 11:37:47;;;;;;;7.32;3.65;;;11.20;99.90;;;;;;5053473;28;20037;-81
2024/02/09 11:40:15;;;;;;;6.05;3.00;;;11.30;99.90;;;;;;5049894;28;20432;-80
2024/02/09 11:42:41;;;;;;;11.30;3.38;;;11.20;99.90;;;;;;5053307;28;20029;-81
2024/02/09 11:45:09;;;;;;;3.80;3.00;;;11.20;99.90;;;;;;5053772;28;20036;-81
2024/02/09 11:47:39;;;;;;;5.40;3.08;;;11.20;99.90;;;;;;5047188;28;20032;-80
2024/02/09 11:50:20;;;;;;;6.73;3.20;;;11.80;99.90;;;;;;5043234;28;20146;-83
2024/02/09 11:52:46;;;;;;;12.10;3.15;;;11.30;99.90;;;;;;5040720;28;20042;-82
2024/02/09 11:55:11;;;;;;;9.48;3.28;;;11.30;99.90;;;;;;5040063;28;20476;-83
2024/02/09 11:57:38;;;;;;;5.78;2.45;;;11.30;99.90;;;;;;5044538;28;20453;-83
2024/02/09 12:00:05;;;;;;;7.80;2.42;;;11.30;99.90;;;;;;5036003;28;20362;-83
2024/02/09 12:02:32;;;;;;;7.90;2.72;;;11.40;99.90;;;;;;5041901;28;20040;-82
2024/02/09 12:04:58;;;;;;;5.15;2.67;;;11.30;99.90;;;;;;5045378;28;20025;-82
2024/02/09 12:07:25;;;;;;;6.55;3.17;;;11.30;99.90;;;;;;5036918;28;20056;-83
2024/02/09 12:09:51;;;;;;;11.70;3.30;;;11.40;99.90;;;;;;5037316;28;20064;-83
2024/02/09 12:12:21;;;;;;;8.07;2.28;;;11.40;99.90;;;;;;5049044;28;20049;-82
2024/02/09 12:14:47;;;;;;;7.35;2.67;;;11.30;99.90;;;;;;5048434;28;20487;-83
2024/02/09 12:17:12;;;;;;;9.93;3.40;;;11.70;99.90;;;;;;5049666;28;20029;-82
2024/02/09 12:19:39;;;;;;;9.68;2.78;;;11.40;99.90;;;;;;5049516;28;20051;-82
2024/02/09 12:22:06;;;;;;;9.75;2.90;;;11.40;99.90;;;;;;5048760;28;20496;-81
2024/02/09 12:24:31;;;;;;;5.53;2.88;;;11.40;99.90;;;;;;5048566;28;20341;-82
2024/02/09 12:26:59;;;;;;;8.15;3.30;;;11.40;99.90;;;;;;5045156;28;20377;-82
2024/02/09 12:29:25;;;;;;;10.50;2.72;;;11.40;99.90;;;;;;5047528;28;20481;-82
2024/02/09 12:31:50;;;;;;;6.10;2.80;;;11.50;99.90;;;;;;5040658;28;20083;-82
2024/02/09 12:34:16;;;;;;;12.07;3.78;;;11.50;99.90;;;;;;5049715;28;20566;-82
2024/02/09 12:36:55;;;;;;;6.30;2.78;;;11.50;99.90;;;;;;5051182;28;20032;-83
2024/02/09 12:39:22;;;;;;;9.95;3.35;;;11.50;99.90;;;;;;5051046;28;20048;-83
2024/02/09 12:41:58;;;;;;;7.85;2.97;;;11.50;99.90;;;;;;5050364;28;20029;-82
2024/02/09 12:44:26;;;;;;;8.48;2.63;;;11.60;99.90;;;;;;5050362;28;20052;-82
2024/02/09 12:46:51;;;;;;;3.85;2.30;;;11.60;99.90;;;;;;5050568;28;20056;-83
2024/02/09 12:49:19;;;;;;;9.73;3.00;;;11.60;99.90;;;;;;5048533;28;20113;-82
2024/02/09 12:51:45;;;;;;;10.65;2.80;;;11.60;99.90;;;;;;5039325;28;20425;-83
2024/02/09 12:54:10;;;;;;;7.78;2.67;;;11.70;99.90;;;;;;5053674;28;20033;-82
2024/02/09 12:56:36;;;;;;;7.65;2.42;;;11.70;99.90;;;;;;5042421;28;20106;-82
2024/02/09 12:59:01;;;;;;;6.90;2.67;;;11.70;99.90;;;;;;5034514;28;20025;-84
2024/02/09 13:01:28;;;;;;;7.40;2.45;;;11.70;99.90;;;;;;5034418;28;20025;-77
2024/02/09 13:03:53;;;;;;;9.70;2.30;;;11.70;99.90;;;;;;5034037;28;20029;-82
2024/02/09 13:06:19;;;;;;;4.82;1.63;;;11.70;99.90;;;;;;5034792;28;20579;-80
2024/02/09 13:08:44;;;;;;;4.75;1.52;;;12.00;99.90;;;;;;5035687;28;20034;-80
2024/02/09 13:11:10;;;;;;;2.22;1.15;;;12.50;99.90;;;;;;5041113;28;20029;-81
2024/02/09 13:13:37;;;;;;;4.88;1.65;;;11.80;99.90;;;;;;5038482;28;20029;-80
2024/02/09 13:16:04;;;;;;;4.97;1.77;;;11.90;99.90;;;;;;5050149;28;20060;-82
2024/02/09 13:18:31;;;;;;;5.97;1.27;;;12.00;99.90;;;;;;5052005;28;20065;-82
2024/02/09 13:20:58;;;;;;;6.93;2.00;;;12.00;99.90;;;;;;5036728;28;20022;-81
2024/02/09 13:23:25;;;;;;;5.32;1.35;;;12.00;99.90;;;;;;5051846;28;20080;-82
2024/02/09 13:25:51;;;;;;;3.78;1.33;;;12.10;99.90;;;;;;5037822;28;20021;-79
2024/02/09 13:28:17;;;;;;;6.88;1.67;;;12.10;99.90;;;;;;5043556;28;20045;-82
2024/02/09 13:30:42;;;;;;;5.68;1.33;;;12.20;99.90;;;;;;5053540;28;20029;-83
2024/02/09 13:33:08;;;;;;;6.47;2.25;;;12.30;99.90;;;;;;5047888;28;20425;-82
2024/02/09 13:35:33;;;;;;;6.30;1.77;;;12.30;99.90;;;;;;5049080;28;20487;-82
2024/02/09 13:37:59;;;;;;;3.47;1.48;;;12.30;99.90;;;;;;5037110;28;20556;-82
2024/02/09 13:40:25;;;;;;;5.18;1.80;;;12.30;99.90;;;;;;5036900;28;20388;-82
2024/02/09 13:42:52;;;;;;;5.75;1.73;;;12.30;99.90;;;;;;5051419;28;20503;-82
2024/02/09 13:45:21;;;;;;;8.52;2.78;;;12.30;99.90;;;;;;5049717;28;20032;-83
2024/02/09 13:47:47;;;;;;;6.45;2.25;;;12.30;99.90;;;;;;5050617;28;20048;-82
2024/02/09 13:50:15;;;;;;;8.20;2.70;;;12.30;99.90;;;;;;5050804;28;20025;-82
2024/02/09 13:52:43;;;;;;;5.95;2.33;;;12.30;99.90;;;;;;5049980;28;20384;-82
2024/02/09 13:55:13;;;;;;;7.88;2.65;;;12.30;99.90;;;;;;5047841;28;20018;-82
2024/02/09 13:57:45;;;;;;;6.63;2.40;;;12.30;99.90;;;;;;5038287;28;20052;-82
2024/02/09 14:00:19;;;;;;;6.05;2.28;;;12.40;99.90;;;;;;5029649;28;20500;-82
2024/02/09 14:02:45;;;;;;;6.15;2.95;;;12.40;99.90;;;;;;5047702;28;20033;-82
2024/02/09 14:05:11;;;;;;;8.90;2.20;;;12.40;99.90;;;;;;5052202;28;20108;-82
2024/02/09 14:07:41;;;;;;;9.75;2.20;;;12.40;99.90;;;;;;5052798;28;20032;-82
2024/02/09 14:10:10;;;;;;;7.47;2.83;;;12.40;99.90;;;;;;5053576;28;20017;-82
2024/02/09 14:12:36;;;;;;;7.80;3.05;;;12.40;99.90;;;;;;5052547;28;20128;-82
2024/02/09 14:15:02;;;;;;;5.13;2.22;;;12.40;99.90;;;;;;5053381;28;20512;-82
2024/02/09 14:17:34;;;;;;;8.13;2.13;;;12.40;99.90;;;;;;5051884;28;20112;-83
2024/02/09 14:20:00;;;;;;;7.75;2.58;;;12.50;99.90;;;;;;5034864;28;20474;-81
2024/02/09 14:22:26;;;;;;;8.57;2.40;;;12.50;99.90;;;;;;5052358;28;20077;-84
2024/02/09 14:24:52;;;;;;;10.98;2.33;;;12.40;99.90;;;;;;5051766;28;20483;-83
2024/02/09 14:27:17;;;;;;;8.38;2.35;;;12.40;99.90;;;;;;5050873;28;20064;-82
2024/02/09 14:29:46;;;;;;;7.97;2.28;;;12.40;99.90;;;;;;5052890;28;20359;-83
2024/02/09 14:32:14;;;;;;;11.07;2.63;;;12.40;99.90;;;;;;5052629;28;20507;-82
2024/02/09 14:34:40;;;;;;;5.63;1.80;;;12.40;99.90;;;;;;5052244;28;20112;-83